sensor_id;sensor_type;location;lat;lon;timestamp;P1;durP1;ratioP1;P2;durP2;ratioP2
25870;SDS011;13689;48.590;7.752;2022-07-23T00:02:01;6.40;;;3.90;;
25870;SDS011;13689;48.590;7.752;2022-07-23T00:04:26;8.23;;;3.70;;
25870;SDS011;13689;48.590;7.752;2022-07-23T00:06:52;7.65;;;4.20;;
25870;SDS011;13689;48.590;7.752;2022-07-23T00:09:18;10.05;;;4.35;;
25870;SDS011;13689;48.590;7.752;2022-07-23T00:11:43;6.35;;;3.80;;
25870;SDS011;13689;48.590;7.752;2022-07-23T00:14:09;5.18;;;3.95;;
25870;SDS011;13689;48.590;7.752;2022-07-23T00:16:34;4.85;;;3.70;;
25870;SDS011;13689;48.590;7.752;2022-07-23T00:19:00;6.97;;;3.72;;
25870;SDS011;13689;48.590;7.752;2022-07-23T00:21:27;4.77;;;3.70;;
25870;SDS011;13689;48.590;7.752;2022-07-23T00:23:53;6.00;;;3.55;;
25870;SDS011;13689;48.590;7.752;2022-07-23T00:26:26;9.60;;;4.00;;
25870;SDS011;13689;48.590;7.752;2022-07-23T00:28:51;4.40;;;3.72;;
25870;SDS011;13689;48.590;7.752;2022-07-23T00:31:17;4.85;;;3.47;;
25870;SDS011;13689;48.590;7.752;2022-07-23T00:33:42;6.75;;;3.90;;
25870;SDS011;13689;48.590;7.752;2022-07-23T00:36:08;5.72;;;3.97;;
25870;SDS011;13689;48.590;7.752;2022-07-23T00:38:34;5.80;;;3.90;;
25870;SDS011;13689;48.590;7.752;2022-07-23T00:40:59;5.55;;;4.13;;
25870;SDS011;13689;48.590;7.752;2022-07-23T00:43:25;4.63;;;4.07;;
25870;SDS011;13689;48.590;7.752;2022-07-23T00:45:51;6.75;;;3.85;;
25870;SDS011;13689;48.590;7.752;2022-07-23T00:48:16;6.38;;;3.90;;
25870;SDS011;13689;48.590;7.752;2022-07-23T00:50:42;7.35;;;3.97;;
25870;SDS011;13689;48.590;7.752;2022-07-23T00:53:09;5.82;;;4.00;;
25870;SDS011;13689;48.590;7.752;2022-07-23T00:55:35;5.18;;;3.65;;
25870;SDS011;13689;48.590;7.752;2022-07-23T00:58:01;6.50;;;3.90;;
25870;SDS011;13689;48.590;7.752;2022-07-23T01:00:27;5.90;;;4.03;;
25870;SDS011;13689;48.590;7.752;2022-07-23T01:02:53;8.38;;;4.00;;
25870;SDS011;13689;48.590;7.752;2022-07-23T01:05:19;6.50;;;4.15;;
25870;SDS011;13689;48.590;7.752;2022-07-23T01:10:16;5.28;;;3.83;;
25870;SDS011;13689;48.590;7.752;2022-07-23T01:13:05;4.78;;;3.50;;
25870;SDS011;13689;48.590;7.752;2022-07-23T01:15:33;4.13;;;3.20;;
25870;SDS011;13689;48.590;7.752;2022-07-23T01:20:25;3.67;;;3.25;;
25870;SDS011;13689;48.590;7.752;2022-07-23T01:22:51;5.13;;;4.18;;
25870;SDS011;13689;48.590;7.752;2022-07-23T01:25:18;3.92;;;3.00;;
25870;SDS011;13689;48.590;7.752;2022-07-23T01:27:45;6.55;;;3.45;;
25870;SDS011;13689;48.590;7.752;2022-07-23T01:30:11;2.30;;;2.10;;
25870;SDS011;13689;48.590;7.752;2022-07-23T01:32:37;4.22;;;2.47;;
25870;SDS011;13689;48.590;7.752;2022-07-23T01:35:04;3.67;;;2.63;;
25870;SDS011;13689;48.590;7.752;2022-07-23T01:37:30;2.17;;;2.07;;
25870;SDS011;13689;48.590;7.752;2022-07-23T01:39:56;2.95;;;2.65;;
25870;SDS011;13689;48.590;7.752;2022-07-23T01:42:22;4.07;;;2.90;;
25870;SDS011;13689;48.590;7.752;2022-07-23T01:44:48;3.15;;;2.25;;
25870;SDS011;13689;48.590;7.752;2022-07-23T01:47:14;4.25;;;2.55;;
25870;SDS011;13689;48.590;7.752;2022-07-23T01:49:39;3.15;;;2.85;;
25870;SDS011;13689;48.590;7.752;2022-07-23T01:52:05;3.28;;;2.45;;
25870;SDS011;13689;48.590;7.752;2022-07-23T01:54:34;4.82;;;2.63;;
25870;SDS011;13689;48.590;7.752;2022-07-23T01:57:00;3.33;;;2.70;;
25870;SDS011;13689;48.590;7.752;2022-07-23T01:59:26;7.45;;;3.00;;
25870;SDS011;13689;48.590;7.752;2022-07-23T02:01:52;5.93;;;2.80;;
25870;SDS011;13689;48.590;7.752;2022-07-23T02:04:19;3.25;;;2.47;;
25870;SDS011;13689;48.590;7.752;2022-07-23T02:06:46;4.07;;;2.50;;
25870;SDS011;13689;48.590;7.752;2022-07-23T02:09:12;4.85;;;2.47;;
25870;SDS011;13689;48.590;7.752;2022-07-23T02:11:37;5.40;;;2.72;;
25870;SDS011;13689;48.590;7.752;2022-07-23T02:14:03;3.25;;;2.58;;
25870;SDS011;13689;48.590;7.752;2022-07-23T02:16:29;3.85;;;2.83;;
25870;SDS011;13689;48.590;7.752;2022-07-23T02:18:54;3.63;;;2.90;;
25870;SDS011;13689;48.590;7.752;2022-07-23T02:21:20;2.88;;;2.60;;
25870;SDS011;13689;48.590;7.752;2022-07-23T02:23:46;4.80;;;2.90;;
25870;SDS011;13689;48.590;7.752;2022-07-23T02:26:12;3.83;;;2.80;;
25870;SDS011;13689;48.590;7.752;2022-07-23T02:28:38;4.80;;;2.83;;
25870;SDS011;13689;48.590;7.752;2022-07-23T02:31:04;2.83;;;2.63;;
25870;SDS011;13689;48.590;7.752;2022-07-23T02:33:31;3.15;;;2.70;;
25870;SDS011;13689;48.590;7.752;2022-07-23T02:35:57;5.25;;;2.92;;
25870;SDS011;13689;48.590;7.752;2022-07-23T02:38:23;2.95;;;2.63;;
25870;SDS011;13689;48.590;7.752;2022-07-23T02:40:48;5.28;;;2.38;;
25870;SDS011;13689;48.590;7.752;2022-07-23T02:43:14;3.70;;;2.58;;
25870;SDS011;13689;48.590;7.752;2022-07-23T02:45:39;3.47;;;2.55;;
25870;SDS011;13689;48.590;7.752;2022-07-23T02:48:05;5.85;;;2.60;;
25870;SDS011;13689;48.590;7.752;2022-07-23T02:50:31;3.47;;;2.55;;
25870;SDS011;13689;48.590;7.752;2022-07-23T02:52:56;7.00;;;2.78;;
25870;SDS011;13689;48.590;7.752;2022-07-23T02:55:22;2.92;;;2.60;;
25870;SDS011;13689;48.590;7.752;2022-07-23T02:57:47;3.65;;;2.70;;
25870;SDS011;13689;48.590;7.752;2022-07-23T03:00:13;3.72;;;2.60;;
25870;SDS011;13689;48.590;7.752;2022-07-23T03:02:39;3.72;;;2.85;;
25870;SDS011;13689;48.590;7.752;2022-07-23T03:05:05;3.70;;;2.67;;
25870;SDS011;13689;48.590;7.752;2022-07-23T03:07:30;3.58;;;2.67;;
25870;SDS011;13689;48.590;7.752;2022-07-23T03:09:56;3.55;;;2.53;;
25870;SDS011;13689;48.590;7.752;2022-07-23T03:12:22;4.90;;;2.72;;
25870;SDS011;13689;48.590;7.752;2022-07-23T03:14:47;4.47;;;2.53;;
25870;SDS011;13689;48.590;7.752;2022-07-23T03:17:13;3.03;;;2.50;;
25870;SDS011;13689;48.590;7.752;2022-07-23T03:19:38;6.93;;;2.72;;
25870;SDS011;13689;48.590;7.752;2022-07-23T03:22:04;3.25;;;2.47;;
25870;SDS011;13689;48.590;7.752;2022-07-23T03:24:30;3.05;;;2.22;;
25870;SDS011;13689;48.590;7.752;2022-07-23T03:27:15;3.97;;;2.53;;
25870;SDS011;13689;48.590;7.752;2022-07-23T03:29:40;4.05;;;2.85;;
25870;SDS011;13689;48.590;7.752;2022-07-23T03:32:06;3.25;;;2.72;;
25870;SDS011;13689;48.590;7.752;2022-07-23T03:34:32;2.88;;;2.50;;
25870;SDS011;13689;48.590;7.752;2022-07-23T03:36:58;2.50;;;2.30;;
25870;SDS011;13689;48.590;7.752;2022-07-23T03:39:24;4.68;;;2.75;;
25870;SDS011;13689;48.590;7.752;2022-07-23T03:41:49;4.57;;;2.58;;
25870;SDS011;13689;48.590;7.752;2022-07-23T03:44:15;3.13;;;2.50;;
25870;SDS011;13689;48.590;7.752;2022-07-23T03:46:40;4.57;;;2.78;;
25870;SDS011;13689;48.590;7.752;2022-07-23T03:49:06;3.10;;;2.60;;
25870;SDS011;13689;48.590;7.752;2022-07-23T03:51:32;5.43;;;2.50;;
25870;SDS011;13689;48.590;7.752;2022-07-23T03:53:57;3.22;;;2.90;;
25870;SDS011;13689;48.590;7.752;2022-07-23T03:56:23;4.43;;;2.58;;
25870;SDS011;13689;48.590;7.752;2022-07-23T03:58:49;5.78;;;2.55;;
25870;SDS011;13689;48.590;7.752;2022-07-23T04:01:14;3.53;;;2.83;;
25870;SDS011;13689;48.590;7.752;2022-07-23T04:03:40;5.07;;;2.55;;
25870;SDS011;13689;48.590;7.752;2022-07-23T04:06:06;4.05;;;2.70;;
25870;SDS011;13689;48.590;7.752;2022-07-23T04:08:32;2.95;;;2.67;;
25870;SDS011;13689;48.590;7.752;2022-07-23T04:10:57;3.20;;;2.60;;
25870;SDS011;13689;48.590;7.752;2022-07-23T04:13:23;7.28;;;3.05;;
25870;SDS011;13689;48.590;7.752;2022-07-23T04:15:49;3.92;;;2.80;;
25870;SDS011;13689;48.590;7.752;2022-07-23T04:18:15;6.60;;;3.05;;
25870;SDS011;13689;48.590;7.752;2022-07-23T04:20:46;2.85;;;2.55;;
25870;SDS011;13689;48.590;7.752;2022-07-23T04:23:12;6.75;;;3.53;;
25870;SDS011;13689;48.590;7.752;2022-07-23T04:25:38;4.70;;;2.95;;
25870;SDS011;13689;48.590;7.752;2022-07-23T04:28:03;3.33;;;2.55;;
25870;SDS011;13689;48.590;7.752;2022-07-23T04:30:29;3.75;;;2.72;;
25870;SDS011;13689;48.590;7.752;2022-07-23T04:32:55;5.50;;;3.05;;
25870;SDS011;13689;48.590;7.752;2022-07-23T04:35:20;3.70;;;2.90;;
25870;SDS011;13689;48.590;7.752;2022-07-23T04:37:46;4.22;;;2.85;;
25870;SDS011;13689;48.590;7.752;2022-07-23T04:40:12;5.05;;;3.13;;
25870;SDS011;13689;48.590;7.752;2022-07-23T04:42:38;5.53;;;3.60;;
25870;SDS011;13689;48.590;7.752;2022-07-23T04:45:04;7.65;;;3.33;;
25870;SDS011;13689;48.590;7.752;2022-07-23T04:47:31;4.35;;;3.80;;
25870;SDS011;13689;48.590;7.752;2022-07-23T04:49:56;4.57;;;3.63;;
25870;SDS011;13689;48.590;7.752;2022-07-23T04:52:22;7.90;;;4.07;;
25870;SDS011;13689;48.590;7.752;2022-07-23T04:54:49;6.60;;;3.75;;
25870;SDS011;13689;48.590;7.752;2022-07-23T04:57:14;3.45;;;3.03;;
25870;SDS011;13689;48.590;7.752;2022-07-23T04:59:40;4.55;;;3.22;;
25870;SDS011;13689;48.590;7.752;2022-07-23T05:02:06;6.57;;;3.70;;
25870;SDS011;13689;48.590;7.752;2022-07-23T05:04:31;5.43;;;3.50;;
25870;SDS011;13689;48.590;7.752;2022-07-23T05:06:58;5.72;;;3.65;;
25870;SDS011;13689;48.590;7.752;2022-07-23T05:09:24;6.05;;;4.13;;
25870;SDS011;13689;48.590;7.752;2022-07-23T05:11:50;7.85;;;4.18;;
25870;SDS011;13689;48.590;7.752;2022-07-23T05:14:16;7.97;;;4.03;;
25870;SDS011;13689;48.590;7.752;2022-07-23T05:16:42;6.15;;;3.97;;
25870;SDS011;13689;48.590;7.752;2022-07-23T05:19:07;8.23;;;3.97;;
25870;SDS011;13689;48.590;7.752;2022-07-23T05:21:33;4.95;;;4.13;;
25870;SDS011;13689;48.590;7.752;2022-07-23T05:23:59;18.70;;;5.85;;
25870;SDS011;13689;48.590;7.752;2022-07-23T05:26:24;17.55;;;6.13;;
25870;SDS011;13689;48.590;7.752;2022-07-23T05:28:50;13.25;;;6.03;;
25870;SDS011;13689;48.590;7.752;2022-07-23T05:31:16;12.10;;;6.22;;
25870;SDS011;13689;48.590;7.752;2022-07-23T05:33:42;10.82;;;5.70;;
25870;SDS011;13689;48.590;7.752;2022-07-23T05:36:08;9.10;;;5.90;;
25870;SDS011;13689;48.590;7.752;2022-07-23T05:38:33;8.75;;;5.82;;
25870;SDS011;13689;48.590;7.752;2022-07-23T05:40:59;12.60;;;6.57;;
25870;SDS011;13689;48.590;7.752;2022-07-23T05:43:25;10.48;;;6.13;;
25870;SDS011;13689;48.590;7.752;2022-07-23T05:45:51;10.25;;;6.68;;
25870;SDS011;13689;48.590;7.752;2022-07-23T05:48:17;9.02;;;6.82;;
25870;SDS011;13689;48.590;7.752;2022-07-23T05:50:43;10.65;;;7.30;;
25870;SDS011;13689;48.590;7.752;2022-07-23T05:53:08;8.77;;;6.85;;
25870;SDS011;13689;48.590;7.752;2022-07-23T05:55:34;11.15;;;7.28;;
25870;SDS011;13689;48.590;7.752;2022-07-23T05:57:59;14.82;;;8.43;;
25870;SDS011;13689;48.590;7.752;2022-07-23T06:00:25;12.45;;;7.43;;
25870;SDS011;13689;48.590;7.752;2022-07-23T06:02:52;10.13;;;8.00;;
25870;SDS011;13689;48.590;7.752;2022-07-23T06:05:18;10.55;;;7.70;;
25870;SDS011;13689;48.590;7.752;2022-07-23T06:07:45;8.95;;;6.50;;
25870;SDS011;13689;48.590;7.752;2022-07-23T06:10:10;10.50;;;6.03;;
25870;SDS011;13689;48.590;7.752;2022-07-23T06:12:36;9.88;;;6.50;;
25870;SDS011;13689;48.590;7.752;2022-07-23T06:15:03;8.25;;;6.47;;
25870;SDS011;13689;48.590;7.752;2022-07-23T06:17:29;9.98;;;6.70;;
25870;SDS011;13689;48.590;7.752;2022-07-23T06:19:55;8.27;;;5.82;;
25870;SDS011;13689;48.590;7.752;2022-07-23T06:22:21;12.10;;;5.88;;
25870;SDS011;13689;48.590;7.752;2022-07-23T06:24:48;10.55;;;5.85;;
25870;SDS011;13689;48.590;7.752;2022-07-23T06:27:16;7.30;;;5.50;;
25870;SDS011;13689;48.590;7.752;2022-07-23T06:29:42;7.45;;;5.18;;
25870;SDS011;13689;48.590;7.752;2022-07-23T06:32:08;15.55;;;7.35;;
25870;SDS011;13689;48.590;7.752;2022-07-23T06:34:34;11.70;;;5.95;;
25870;SDS011;13689;48.590;7.752;2022-07-23T06:36:59;10.38;;;6.22;;
25870;SDS011;13689;48.590;7.752;2022-07-23T06:39:25;9.07;;;6.55;;
25870;SDS011;13689;48.590;7.752;2022-07-23T06:41:51;13.95;;;7.47;;
25870;SDS011;13689;48.590;7.752;2022-07-23T06:44:17;12.50;;;6.35;;
25870;SDS011;13689;48.590;7.752;2022-07-23T06:46:43;9.90;;;6.72;;
25870;SDS011;13689;48.590;7.752;2022-07-23T06:49:08;9.52;;;6.20;;
25870;SDS011;13689;48.590;7.752;2022-07-23T06:51:34;10.88;;;6.28;;
25870;SDS011;13689;48.590;7.752;2022-07-23T06:54:00;9.85;;;6.25;;
25870;SDS011;13689;48.590;7.752;2022-07-23T06:56:26;7.85;;;6.82;;
25870;SDS011;13689;48.590;7.752;2022-07-23T06:58:52;9.65;;;6.50;;
25870;SDS011;13689;48.590;7.752;2022-07-23T07:01:17;9.05;;;7.50;;
25870;SDS011;13689;48.590;7.752;2022-07-23T07:03:43;9.65;;;7.15;;
25870;SDS011;13689;48.590;7.752;2022-07-23T07:06:09;10.65;;;7.38;;
25870;SDS011;13689;48.590;7.752;2022-07-23T07:08:35;10.00;;;7.53;;
25870;SDS011;13689;48.590;7.752;2022-07-23T07:11:01;11.07;;;7.60;;
25870;SDS011;13689;48.590;7.752;2022-07-23T07:13:26;9.38;;;6.80;;
25870;SDS011;13689;48.590;7.752;2022-07-23T07:15:52;10.93;;;6.90;;
25870;SDS011;13689;48.590;7.752;2022-07-23T07:18:18;11.63;;;7.40;;
25870;SDS011;13689;48.590;7.752;2022-07-23T07:20:43;13.40;;;7.50;;
25870;SDS011;13689;48.590;7.752;2022-07-23T07:23:09;16.50;;;8.27;;
25870;SDS011;13689;48.590;7.752;2022-07-23T07:25:35;11.02;;;7.22;;
25870;SDS011;13689;48.590;7.752;2022-07-23T07:28:00;8.70;;;7.20;;
25870;SDS011;13689;48.590;7.752;2022-07-23T07:30:26;9.65;;;7.90;;
25870;SDS011;13689;48.590;7.752;2022-07-23T07:32:51;12.68;;;9.27;;
25870;SDS011;13689;48.590;7.752;2022-07-23T07:35:17;11.70;;;7.10;;
25870;SDS011;13689;48.590;7.752;2022-07-23T07:37:43;11.93;;;6.82;;
25870;SDS011;13689;48.590;7.752;2022-07-23T07:40:08;8.95;;;6.05;;
25870;SDS011;13689;48.590;7.752;2022-07-23T07:42:34;7.18;;;5.45;;
25870;SDS011;13689;48.590;7.752;2022-07-23T07:45:08;9.65;;;5.32;;
25870;SDS011;13689;48.590;7.752;2022-07-23T07:47:34;9.00;;;5.43;;
25870;SDS011;13689;48.590;7.752;2022-07-23T07:49:59;7.53;;;5.53;;
25870;SDS011;13689;48.590;7.752;2022-07-23T07:52:25;8.45;;;5.68;;
25870;SDS011;13689;48.590;7.752;2022-07-23T07:54:51;10.45;;;5.32;;
25870;SDS011;13689;48.590;7.752;2022-07-23T07:57:17;7.15;;;5.45;;
25870;SDS011;13689;48.590;7.752;2022-07-23T07:59:42;6.07;;;4.75;;
25870;SDS011;13689;48.590;7.752;2022-07-23T08:02:08;7.10;;;4.88;;
25870;SDS011;13689;48.590;7.752;2022-07-23T08:04:33;8.60;;;4.63;;
25870;SDS011;13689;48.590;7.752;2022-07-23T08:06:59;6.55;;;4.95;;
25870;SDS011;13689;48.590;7.752;2022-07-23T08:09:25;6.53;;;5.05;;
25870;SDS011;13689;48.590;7.752;2022-07-23T08:11:50;7.45;;;5.55;;
25870;SDS011;13689;48.590;7.752;2022-07-23T08:14:16;10.10;;;5.55;;
25870;SDS011;13689;48.590;7.752;2022-07-23T08:16:42;8.23;;;5.15;;
25870;SDS011;13689;48.590;7.752;2022-07-23T08:19:08;9.82;;;5.75;;
25870;SDS011;13689;48.590;7.752;2022-07-23T08:21:34;8.25;;;5.90;;
25870;SDS011;13689;48.590;7.752;2022-07-23T08:23:59;9.35;;;5.32;;
25870;SDS011;13689;48.590;7.752;2022-07-23T08:26:25;5.95;;;4.75;;
25870;SDS011;13689;48.590;7.752;2022-07-23T08:28:50;8.88;;;4.97;;
25870;SDS011;13689;48.590;7.752;2022-07-23T08:31:16;8.85;;;6.40;;
25870;SDS011;13689;48.590;7.752;2022-07-23T08:33:42;6.38;;;5.18;;
25870;SDS011;13689;48.590;7.752;2022-07-23T08:36:08;6.03;;;5.28;;
25870;SDS011;13689;48.590;7.752;2022-07-23T08:38:34;5.35;;;4.72;;
25870;SDS011;13689;48.590;7.752;2022-07-23T08:41:00;6.53;;;5.30;;
25870;SDS011;13689;48.590;7.752;2022-07-23T08:43:27;8.40;;;5.43;;
25870;SDS011;13689;48.590;7.752;2022-07-23T08:45:56;6.30;;;4.43;;
25870;SDS011;13689;48.590;7.752;2022-07-23T08:48:24;5.07;;;4.38;;
25870;SDS011;13689;48.590;7.752;2022-07-23T08:50:54;6.13;;;4.75;;
25870;SDS011;13689;48.590;7.752;2022-07-23T08:53:22;5.53;;;3.95;;
25870;SDS011;13689;48.590;7.752;2022-07-23T08:58:17;7.13;;;4.63;;
25870;SDS011;13689;48.590;7.752;2022-07-23T09:00:43;5.65;;;4.97;;
25870;SDS011;13689;48.590;7.752;2022-07-23T09:03:16;6.60;;;4.53;;
25870;SDS011;13689;48.590;7.752;2022-07-23T09:05:42;7.93;;;4.38;;
25870;SDS011;13689;48.590;7.752;2022-07-23T09:08:15;7.03;;;4.80;;
25870;SDS011;13689;48.590;7.752;2022-07-23T09:13:29;5.50;;;4.85;;
25870;SDS011;13689;48.590;7.752;2022-07-23T09:16:19;9.30;;;5.93;;
25870;SDS011;13689;48.590;7.752;2022-07-23T09:18:52;10.90;;;5.32;;
25870;SDS011;13689;48.590;7.752;2022-07-23T09:23:56;6.60;;;4.43;;
25870;SDS011;13689;48.590;7.752;2022-07-23T09:26:36;11.30;;;5.82;;
25870;SDS011;13689;48.590;7.752;2022-07-23T09:31:41;7.55;;;5.32;;
25870;SDS011;13689;48.590;7.752;2022-07-23T09:34:16;6.82;;;5.00;;
25870;SDS011;13689;48.590;7.752;2022-07-23T09:36:44;7.72;;;5.25;;
25870;SDS011;13689;48.590;7.752;2022-07-23T09:39:10;9.77;;;5.57;;
25870;SDS011;13689;48.590;7.752;2022-07-23T09:41:39;8.80;;;5.00;;
25870;SDS011;13689;48.590;7.752;2022-07-23T09:44:13;5.85;;;4.75;;
25870;SDS011;13689;48.590;7.752;2022-07-23T09:46:41;5.40;;;4.50;;
25870;SDS011;13689;48.590;7.752;2022-07-23T09:49:17;8.23;;;4.25;;
25870;SDS011;13689;48.590;7.752;2022-07-23T09:51:48;4.65;;;4.18;;
25870;SDS011;13689;48.590;7.752;2022-07-23T09:54:21;7.07;;;4.50;;
25870;SDS011;13689;48.590;7.752;2022-07-23T09:56:47;4.20;;;3.72;;
25870;SDS011;13689;48.590;7.752;2022-07-23T09:59:14;5.80;;;4.00;;
25870;SDS011;13689;48.590;7.752;2022-07-23T10:01:43;4.20;;;3.80;;
25870;SDS011;13689;48.590;7.752;2022-07-23T10:04:10;7.07;;;4.40;;
25870;SDS011;13689;48.590;7.752;2022-07-23T10:06:39;4.50;;;3.80;;
25870;SDS011;13689;48.590;7.752;2022-07-23T10:09:07;3.70;;;3.40;;
25870;SDS011;13689;48.590;7.752;2022-07-23T10:11:37;5.22;;;3.97;;
25870;SDS011;13689;48.590;7.752;2022-07-23T10:14:02;7.82;;;4.30;;
25870;SDS011;13689;48.590;7.752;2022-07-23T10:16:30;5.13;;;4.63;;
25870;SDS011;13689;48.590;7.752;2022-07-23T10:18:56;8.75;;;5.40;;
25870;SDS011;13689;48.590;7.752;2022-07-23T10:21:34;6.05;;;4.13;;
25870;SDS011;13689;48.590;7.752;2022-07-23T10:38:18;5.63;;;4.60;;
25870;SDS011;13689;48.590;7.752;2022-07-23T10:40:55;4.30;;;3.80;;
25870;SDS011;13689;48.590;7.752;2022-07-23T10:43:26;4.85;;;4.35;;
25870;SDS011;13689;48.590;7.752;2022-07-23T10:48:19;6.30;;;3.70;;
25870;SDS011;13689;48.590;7.752;2022-07-23T10:59:22;3.63;;;3.33;;
25870;SDS011;13689;48.590;7.752;2022-07-23T11:01:48;4.75;;;3.08;;
25870;SDS011;13689;48.590;7.752;2022-07-23T11:04:14;3.17;;;2.70;;
25870;SDS011;13689;48.590;7.752;2022-07-23T11:12:21;4.20;;;3.72;;
25870;SDS011;13689;48.590;7.752;2022-07-23T11:18:18;4.80;;;3.80;;
25870;SDS011;13689;48.590;7.752;2022-07-23T11:20:20;5.03;;;3.95;;
25870;SDS011;13689;48.590;7.752;2022-07-23T11:23:03;6.13;;;3.70;;
25870;SDS011;13689;48.590;7.752;2022-07-23T11:25:30;4.10;;;3.70;;
25870;SDS011;13689;48.590;7.752;2022-07-23T11:28:07;4.93;;;3.63;;
25870;SDS011;13689;48.590;7.752;2022-07-23T11:30:39;5.13;;;3.45;;
25870;SDS011;13689;48.590;7.752;2022-07-23T11:35:42;7.50;;;3.47;;
25870;SDS011;13689;48.590;7.752;2022-07-23T11:40:39;5.13;;;3.33;;
25870;SDS011;13689;48.590;7.752;2022-07-23T11:43:08;4.30;;;3.75;;
25870;SDS011;13689;48.590;7.752;2022-07-23T11:45:36;4.43;;;3.65;;
25870;SDS011;13689;48.590;7.752;2022-07-23T11:48:04;3.97;;;2.95;;
25870;SDS011;13689;48.590;7.752;2022-07-23T11:50:31;3.45;;;3.15;;
25870;SDS011;13689;48.590;7.752;2022-07-23T11:52:57;6.05;;;3.78;;
25870;SDS011;13689;48.590;7.752;2022-07-23T11:55:23;6.80;;;3.80;;
25870;SDS011;13689;48.590;7.752;2022-07-23T11:57:50;4.50;;;3.58;;
25870;SDS011;13689;48.590;7.752;2022-07-23T12:00:18;7.32;;;3.85;;
25870;SDS011;13689;48.590;7.752;2022-07-23T12:02:50;4.68;;;3.83;;
25870;SDS011;13689;48.590;7.752;2022-07-23T12:05:21;3.97;;;3.58;;
25870;SDS011;13689;48.590;7.752;2022-07-23T12:07:49;6.82;;;3.67;;
25870;SDS011;13689;48.590;7.752;2022-07-23T12:15:12;3.88;;;3.42;;
25870;SDS011;13689;48.590;7.752;2022-07-23T12:17:39;4.38;;;3.58;;
25870;SDS011;13689;48.590;7.752;2022-07-23T12:20:07;5.88;;;3.63;;
25870;SDS011;13689;48.590;7.752;2022-07-23T12:22:39;6.88;;;3.85;;
25870;SDS011;13689;48.590;7.752;2022-07-23T12:25:14;5.60;;;3.97;;
25870;SDS011;13689;48.590;7.752;2022-07-23T12:27:45;4.45;;;3.63;;
25870;SDS011;13689;48.590;7.752;2022-07-23T12:30:15;3.75;;;3.45;;
25870;SDS011;13689;48.590;7.752;2022-07-23T12:32:45;3.28;;;3.08;;
25870;SDS011;13689;48.590;7.752;2022-07-23T12:35:15;4.60;;;3.70;;
25870;SDS011;13689;48.590;7.752;2022-07-23T12:37:42;5.55;;;3.88;;
25870;SDS011;13689;48.590;7.752;2022-07-23T12:40:19;6.85;;;3.28;;
25870;SDS011;13689;48.590;7.752;2022-07-23T12:42:57;6.32;;;3.50;;
25870;SDS011;13689;48.590;7.752;2022-07-23T12:45:26;5.93;;;4.00;;
25870;SDS011;13689;48.590;7.752;2022-07-23T12:50:36;4.03;;;3.58;;
25870;SDS011;13689;48.590;7.752;2022-07-23T12:55:34;4.57;;;3.60;;
25870;SDS011;13689;48.590;7.752;2022-07-23T12:58:07;4.90;;;3.77;;
25870;SDS011;13689;48.590;7.752;2022-07-23T13:03:38;3.88;;;3.33;;
25870;SDS011;13689;48.590;7.752;2022-07-23T13:06:09;7.00;;;3.75;;
25870;SDS011;13689;48.590;7.752;2022-07-23T13:08:36;4.00;;;3.58;;
25870;SDS011;13689;48.590;7.752;2022-07-23T13:11:03;4.65;;;3.47;;
25870;SDS011;13689;48.590;7.752;2022-07-23T13:13:31;6.57;;;3.80;;
25870;SDS011;13689;48.590;7.752;2022-07-23T13:16:00;5.88;;;3.85;;
25870;SDS011;13689;48.590;7.752;2022-07-23T13:18:27;4.53;;;4.03;;
25870;SDS011;13689;48.590;7.752;2022-07-23T13:20:53;4.22;;;3.70;;
25870;SDS011;13689;48.590;7.752;2022-07-23T13:23:19;6.22;;;3.45;;
25870;SDS011;13689;48.590;7.752;2022-07-23T13:25:45;9.80;;;4.00;;
25870;SDS011;13689;48.590;7.752;2022-07-23T13:28:12;5.10;;;3.95;;
25870;SDS011;13689;48.590;7.752;2022-07-23T13:30:39;5.07;;;3.38;;
25870;SDS011;13689;48.590;7.752;2022-07-23T13:33:06;4.90;;;3.30;;
25870;SDS011;13689;48.590;7.752;2022-07-23T13:35:32;5.38;;;3.55;;
25870;SDS011;13689;48.590;7.752;2022-07-23T13:37:59;5.03;;;3.40;;
25870;SDS011;13689;48.590;7.752;2022-07-23T13:40:25;4.47;;;3.60;;
25870;SDS011;13689;48.590;7.752;2022-07-23T13:42:51;4.00;;;3.45;;
25870;SDS011;13689;48.590;7.752;2022-07-23T13:45:17;3.92;;;3.50;;
25870;SDS011;13689;48.590;7.752;2022-07-23T13:47:43;6.28;;;3.55;;
25870;SDS011;13689;48.590;7.752;2022-07-23T13:50:08;3.97;;;3.63;;
25870;SDS011;13689;48.590;7.752;2022-07-23T13:52:34;4.28;;;3.28;;
25870;SDS011;13689;48.590;7.752;2022-07-23T13:55:00;4.00;;;3.40;;
25870;SDS011;13689;48.590;7.752;2022-07-23T13:57:28;5.95;;;3.90;;
25870;SDS011;13689;48.590;7.752;2022-07-23T13:59:54;4.15;;;3.75;;
25870;SDS011;13689;48.590;7.752;2022-07-23T14:02:20;7.22;;;4.18;;
25870;SDS011;13689;48.590;7.752;2022-07-23T14:04:46;8.55;;;3.80;;
25870;SDS011;13689;48.590;7.752;2022-07-23T14:07:12;5.03;;;3.45;;
25870;SDS011;13689;48.590;7.752;2022-07-23T14:09:38;4.80;;;3.50;;
25870;SDS011;13689;48.590;7.752;2022-07-23T14:12:04;6.63;;;3.67;;
25870;SDS011;13689;48.590;7.752;2022-07-23T14:14:30;6.03;;;4.07;;
25870;SDS011;13689;48.590;7.752;2022-07-23T14:16:55;5.05;;;3.60;;
25870;SDS011;13689;48.590;7.752;2022-07-23T14:19:21;5.72;;;3.95;;
25870;SDS011;13689;48.590;7.752;2022-07-23T14:21:47;4.28;;;3.40;;
25870;SDS011;13689;48.590;7.752;2022-07-23T14:24:13;4.15;;;3.75;;
25870;SDS011;13689;48.590;7.752;2022-07-23T14:26:40;7.43;;;3.60;;
25870;SDS011;13689;48.590;7.752;2022-07-23T14:29:06;3.92;;;3.60;;
25870;SDS011;13689;48.590;7.752;2022-07-23T14:31:31;5.13;;;3.95;;
25870;SDS011;13689;48.590;7.752;2022-07-23T14:33:57;4.97;;;3.80;;
25870;SDS011;13689;48.590;7.752;2022-07-23T14:36:23;4.07;;;3.70;;
25870;SDS011;13689;48.590;7.752;2022-07-23T14:38:49;4.95;;;4.20;;
25870;SDS011;13689;48.590;7.752;2022-07-23T14:41:15;4.40;;;3.85;;
25870;SDS011;13689;48.590;7.752;2022-07-23T14:43:40;4.82;;;3.75;;
25870;SDS011;13689;48.590;7.752;2022-07-23T14:46:07;9.90;;;3.95;;
25870;SDS011;13689;48.590;7.752;2022-07-23T14:48:33;5.20;;;3.90;;
25870;SDS011;13689;48.590;7.752;2022-07-23T14:50:58;4.35;;;3.42;;
25870;SDS011;13689;48.590;7.752;2022-07-23T14:53:24;4.72;;;3.88;;
25870;SDS011;13689;48.590;7.752;2022-07-23T14:55:50;6.85;;;3.47;;
25870;SDS011;13689;48.590;7.752;2022-07-23T14:58:15;4.80;;;3.72;;
25870;SDS011;13689;48.590;7.752;2022-07-23T15:00:41;4.72;;;3.92;;
25870;SDS011;13689;48.590;7.752;2022-07-23T15:03:07;7.05;;;4.03;;
25870;SDS011;13689;48.590;7.752;2022-07-23T15:05:32;4.05;;;3.63;;
25870;SDS011;13689;48.590;7.752;2022-07-23T15:07:58;5.50;;;3.92;;
25870;SDS011;13689;48.590;7.752;2022-07-23T15:10:24;4.57;;;4.13;;
25870;SDS011;13689;48.590;7.752;2022-07-23T15:12:49;4.53;;;4.10;;
25870;SDS011;13689;48.590;7.752;2022-07-23T15:15:15;3.67;;;3.33;;
25870;SDS011;13689;48.590;7.752;2022-07-23T15:17:42;5.05;;;3.63;;
25870;SDS011;13689;48.590;7.752;2022-07-23T15:20:08;7.32;;;3.83;;
25870;SDS011;13689;48.590;7.752;2022-07-23T15:22:34;4.22;;;3.83;;
25870;SDS011;13689;48.590;7.752;2022-07-23T15:25:00;3.90;;;3.40;;
25870;SDS011;13689;48.590;7.752;2022-07-23T15:27:27;4.85;;;3.45;;
25870;SDS011;13689;48.590;7.752;2022-07-23T15:29:52;4.60;;;3.20;;
25870;SDS011;13689;48.590;7.752;2022-07-23T15:32:18;5.60;;;3.50;;
25870;SDS011;13689;48.590;7.752;2022-07-23T15:34:44;4.82;;;3.53;;
25870;SDS011;13689;48.590;7.752;2022-07-23T15:37:09;4.63;;;3.70;;
25870;SDS011;13689;48.590;7.752;2022-07-23T15:39:35;4.80;;;3.47;;
25870;SDS011;13689;48.590;7.752;2022-07-23T15:42:01;14.25;;;3.35;;
25870;SDS011;13689;48.590;7.752;2022-07-23T15:44:28;3.55;;;3.25;;
25870;SDS011;13689;48.590;7.752;2022-07-23T15:46:53;3.67;;;3.08;;
25870;SDS011;13689;48.590;7.752;2022-07-23T15:49:20;4.95;;;3.25;;
25870;SDS011;13689;48.590;7.752;2022-07-23T15:51:46;4.65;;;3.45;;